sensor_id;sensor_type;location;lat;lon;timestamp;P1;durP1;ratioP1;P2;durP2;ratioP2
62401;SDS011;48440;51.224;22.506;2022-10-22T00:01:33;13.27;;;7.32;;
62401;SDS011;48440;51.224;22.506;2022-10-22T00:04:03;15.27;;;7.93;;
62401;SDS011;48440;51.224;22.506;2022-10-22T00:06:29;13.75;;;7.63;;
62401;SDS011;48440;51.224;22.506;2022-10-22T00:08:54;15.57;;;7.70;;
62401;SDS011;48440;51.224;22.506;2022-10-22T00:11:20;12.98;;;8.10;;
62401;SDS011;48440;51.224;22.506;2022-10-22T00:13:46;16.42;;;7.63;;
62401;SDS011;48440;51.224;22.506;2022-10-22T00:16:12;16.40;;;7.60;;
62401;SDS011;48440;51.224;22.506;2022-10-22T00:18:41;16.95;;;8.23;;
62401;SDS011;48440;51.224;22.506;2022-10-22T00:21:09;15.73;;;8.05;;
62401;SDS011;48440;51.224;22.506;2022-10-22T00:23:38;15.02;;;7.80;;
62401;SDS011;48440;51.224;22.506;2022-10-22T00:26:05;14.88;;;8.10;;
62401;SDS011;48440;51.224;22.506;2022-10-22T00:28:31;16.65;;;8.05;;
62401;SDS011;48440;51.224;22.506;2022-10-22T00:31:08;15.75;;;8.00;;
62401;SDS011;48440;51.224;22.506;2022-10-22T00:33:39;15.23;;;7.68;;
62401;SDS011;48440;51.224;22.506;2022-10-22T00:36:06;15.63;;;7.78;;
62401;SDS011;48440;51.224;22.506;2022-10-22T00:38:34;16.48;;;8.35;;
62401;SDS011;48440;51.224;22.506;2022-10-22T00:41:00;15.63;;;7.60;;
62401;SDS011;48440;51.224;22.506;2022-10-22T00:43:26;17.10;;;7.85;;
62401;SDS011;48440;51.224;22.506;2022-10-22T00:45:51;15.13;;;7.78;;
62401;SDS011;48440;51.224;22.506;2022-10-22T00:48:19;17.65;;;7.88;;
62401;SDS011;48440;51.224;22.506;2022-10-22T00:50:58;17.75;;;8.30;;
62401;SDS011;48440;51.224;22.506;2022-10-22T00:53:37;13.93;;;7.63;;
62401;SDS011;48440;51.224;22.506;2022-10-22T00:56:24;16.50;;;8.00;;
62401;SDS011;48440;51.224;22.506;2022-10-22T00:58:52;18.52;;;8.15;;
62401;SDS011;48440;51.224;22.506;2022-10-22T01:01:25;17.40;;;8.13;;
62401;SDS011;48440;51.224;22.506;2022-10-22T01:03:52;14.05;;;7.95;;
62401;SDS011;48440;51.224;22.506;2022-10-22T01:06:23;17.35;;;7.93;;
62401;SDS011;48440;51.224;22.506;2022-10-22T01:12:12;16.27;;;7.40;;
62401;SDS011;48440;51.224;22.506;2022-10-22T01:15:13;19.25;;;7.88;;
62401;SDS011;48440;51.224;22.506;2022-10-22T01:28:53;15.60;;;8.52;;
62401;SDS011;48440;51.224;22.506;2022-10-22T01:31:43;19.98;;;8.45;;
62401;SDS011;48440;51.224;22.506;2022-10-22T01:36:40;17.38;;;8.60;;
62401;SDS011;48440;51.224;22.506;2022-10-22T01:39:07;21.08;;;8.65;;
62401;SDS011;48440;51.224;22.506;2022-10-22T01:41:34;19.55;;;9.02;;
62401;SDS011;48440;51.224;22.506;2022-10-22T01:44:03;23.25;;;9.25;;
62401;SDS011;48440;51.224;22.506;2022-10-22T01:46:28;18.38;;;8.55;;
62401;SDS011;48440;51.224;22.506;2022-10-22T01:49:11;16.58;;;8.13;;
62401;SDS011;48440;51.224;22.506;2022-10-22T01:54:58;21.55;;;9.63;;
62401;SDS011;48440;51.224;22.506;2022-10-22T01:57:36;22.17;;;9.13;;
62401;SDS011;48440;51.224;22.506;2022-10-22T02:00:08;21.08;;;8.95;;
62401;SDS011;48440;51.224;22.506;2022-10-22T02:02:42;18.05;;;8.95;;
62401;SDS011;48440;51.224;22.506;2022-10-22T02:05:23;18.67;;;8.27;;
62401;SDS011;48440;51.224;22.506;2022-10-22T02:07:58;17.17;;;9.07;;
62401;SDS011;48440;51.224;22.506;2022-10-22T02:10:37;14.82;;;8.35;;
62401;SDS011;48440;51.224;22.506;2022-10-22T02:13:07;18.02;;;9.20;;
62401;SDS011;48440;51.224;22.506;2022-10-22T02:15:36;17.88;;;9.05;;
62401;SDS011;48440;51.224;22.506;2022-10-22T02:18:04;15.30;;;8.13;;
62401;SDS011;48440;51.224;22.506;2022-10-22T02:20:33;18.55;;;8.80;;
62401;SDS011;48440;51.224;22.506;2022-10-22T02:23:00;19.15;;;9.20;;
62401;SDS011;48440;51.224;22.506;2022-10-22T02:25:27;24.08;;;8.95;;
62401;SDS011;48440;51.224;22.506;2022-10-22T02:27:58;16.60;;;8.95;;
62401;SDS011;48440;51.224;22.506;2022-10-22T02:30:34;22.20;;;9.02;;
62401;SDS011;48440;51.224;22.506;2022-10-22T02:33:07;16.48;;;8.50;;
62401;SDS011;48440;51.224;22.506;2022-10-22T02:35:42;18.77;;;8.68;;
62401;SDS011;48440;51.224;22.506;2022-10-22T02:38:08;20.77;;;9.63;;
62401;SDS011;48440;51.224;22.506;2022-10-22T02:40:36;18.52;;;8.70;;
62401;SDS011;48440;51.224;22.506;2022-10-22T02:43:02;18.40;;;8.90;;
62401;SDS011;48440;51.224;22.506;2022-10-22T02:45:29;17.48;;;8.73;;
62401;SDS011;48440;51.224;22.506;2022-10-22T02:47:55;18.90;;;9.00;;
62401;SDS011;48440;51.224;22.506;2022-10-22T02:50:21;16.90;;;8.23;;
62401;SDS011;48440;51.224;22.506;2022-10-22T02:52:47;21.67;;;9.38;;
62401;SDS011;48440;51.224;22.506;2022-10-22T02:55:13;19.80;;;8.70;;
62401;SDS011;48440;51.224;22.506;2022-10-22T02:57:39;18.15;;;8.98;;
62401;SDS011;48440;51.224;22.506;2022-10-22T03:00:05;18.92;;;9.02;;
62401;SDS011;48440;51.224;22.506;2022-10-22T03:02:32;17.30;;;9.10;;
62401;SDS011;48440;51.224;22.506;2022-10-22T03:04:58;17.10;;;8.45;;
62401;SDS011;48440;51.224;22.506;2022-10-22T03:07:24;17.83;;;9.57;;
62401;SDS011;48440;51.224;22.506;2022-10-22T03:09:49;16.27;;;8.50;;
62401;SDS011;48440;51.224;22.506;2022-10-22T03:12:15;16.73;;;8.63;;
62401;SDS011;48440;51.224;22.506;2022-10-22T03:14:41;18.33;;;8.73;;
62401;SDS011;48440;51.224;22.506;2022-10-22T03:17:07;20.60;;;9.65;;
62401;SDS011;48440;51.224;22.506;2022-10-22T03:19:33;18.13;;;9.10;;
62401;SDS011;48440;51.224;22.506;2022-10-22T03:22:09;19.63;;;9.27;;
62401;SDS011;48440;51.224;22.506;2022-10-22T03:24:40;24.05;;;9.85;;
62401;SDS011;48440;51.224;22.506;2022-10-22T03:27:08;20.85;;;9.13;;
62401;SDS011;48440;51.224;22.506;2022-10-22T03:29:37;21.67;;;8.35;;
62401;SDS011;48440;51.224;22.506;2022-10-22T03:32:06;18.55;;;9.45;;
62401;SDS011;48440;51.224;22.506;2022-10-22T03:34:32;21.63;;;9.68;;
62401;SDS011;48440;51.224;22.506;2022-10-22T03:36:59;21.77;;;9.38;;
62401;SDS011;48440;51.224;22.506;2022-10-22T03:39:25;21.10;;;9.80;;
62401;SDS011;48440;51.224;22.506;2022-10-22T03:41:53;20.30;;;9.65;;
62401;SDS011;48440;51.224;22.506;2022-10-22T03:44:20;16.67;;;8.73;;
62401;SDS011;48440;51.224;22.506;2022-10-22T03:46:46;22.55;;;9.20;;
62401;SDS011;48440;51.224;22.506;2022-10-22T03:49:12;15.82;;;8.55;;
62401;SDS011;48440;51.224;22.506;2022-10-22T03:51:38;16.35;;;8.40;;
62401;SDS011;48440;51.224;22.506;2022-10-22T03:54:07;19.30;;;9.95;;
62401;SDS011;48440;51.224;22.506;2022-10-22T03:56:36;21.23;;;8.57;;
62401;SDS011;48440;51.224;22.506;2022-10-22T04:02:55;16.60;;;8.38;;
62401;SDS011;48440;51.224;22.506;2022-10-22T04:13:46;17.67;;;8.77;;
62401;SDS011;48440;51.224;22.506;2022-10-22T04:16:14;14.48;;;8.27;;
62401;SDS011;48440;51.224;22.506;2022-10-22T04:18:41;23.25;;;8.68;;
62401;SDS011;48440;51.224;22.506;2022-10-22T04:21:45;17.58;;;8.85;;
62401;SDS011;48440;51.224;22.506;2022-10-22T04:28:11;21.17;;;9.05;;
62401;SDS011;48440;51.224;22.506;2022-10-22T04:30:40;18.83;;;9.38;;
62401;SDS011;48440;51.224;22.506;2022-10-22T04:36:17;23.90;;;9.70;;
62401;SDS011;48440;51.224;22.506;2022-10-22T04:38:46;25.92;;;10.05;;
62401;SDS011;48440;51.224;22.506;2022-10-22T04:41:18;20.20;;;9.70;;
62401;SDS011;48440;51.224;22.506;2022-10-22T04:43:52;20.75;;;9.70;;
62401;SDS011;48440;51.224;22.506;2022-10-22T04:46:37;20.70;;;10.23;;
62401;SDS011;48440;51.224;22.506;2022-10-22T04:51:57;15.55;;;8.43;;
62401;SDS011;48440;51.224;22.506;2022-10-22T04:54:22;16.77;;;7.82;;
62401;SDS011;48440;51.224;22.506;2022-10-22T04:56:52;20.65;;;8.95;;
62401;SDS011;48440;51.224;22.506;2022-10-22T04:59:21;21.70;;;9.52;;
62401;SDS011;48440;51.224;22.506;2022-10-22T05:01:47;18.65;;;8.57;;
62401;SDS011;48440;51.224;22.506;2022-10-22T05:04:16;20.42;;;9.82;;
62401;SDS011;48440;51.224;22.506;2022-10-22T05:06:42;16.27;;;8.95;;
62401;SDS011;48440;51.224;22.506;2022-10-22T05:09:11;21.77;;;9.93;;
62401;SDS011;48440;51.224;22.506;2022-10-22T05:11:39;25.55;;;10.40;;
62401;SDS011;48440;51.224;22.506;2022-10-22T05:14:07;23.17;;;9.43;;
62401;SDS011;48440;51.224;22.506;2022-10-22T05:16:37;19.05;;;9.32;;
62401;SDS011;48440;51.224;22.506;2022-10-22T05:19:03;18.23;;;9.35;;
62401;SDS011;48440;51.224;22.506;2022-10-22T05:21:29;21.27;;;9.48;;
62401;SDS011;48440;51.224;22.506;2022-10-22T05:24:02;19.10;;;9.57;;
62401;SDS011;48440;51.224;22.506;2022-10-22T05:26:30;23.15;;;9.77;;
62401;SDS011;48440;51.224;22.506;2022-10-22T05:29:00;20.27;;;9.30;;
62401;SDS011;48440;51.224;22.506;2022-10-22T05:31:25;21.40;;;9.48;;
62401;SDS011;48440;51.224;22.506;2022-10-22T05:33:52;24.35;;;9.45;;
62401;SDS011;48440;51.224;22.506;2022-10-22T05:36:19;18.83;;;9.40;;
62401;SDS011;48440;51.224;22.506;2022-10-22T05:38:46;21.80;;;10.00;;
62401;SDS011;48440;51.224;22.506;2022-10-22T05:41:16;19.75;;;10.02;;
62401;SDS011;48440;51.224;22.506;2022-10-22T05:43:49;24.67;;;10.07;;
62401;SDS011;48440;51.224;22.506;2022-10-22T05:46:19;24.80;;;9.57;;
62401;SDS011;48440;51.224;22.506;2022-10-22T05:48:52;18.95;;;10.35;;
62401;SDS011;48440;51.224;22.506;2022-10-22T05:51:20;21.42;;;9.77;;
62401;SDS011;48440;51.224;22.506;2022-10-22T05:54:06;18.48;;;9.88;;
62401;SDS011;48440;51.224;22.506;2022-10-22T05:56:35;21.65;;;10.20;;
62401;SDS011;48440;51.224;22.506;2022-10-22T05:59:13;21.42;;;9.65;;
62401;SDS011;48440;51.224;22.506;2022-10-22T06:01:41;19.10;;;9.10;;
62401;SDS011;48440;51.224;22.506;2022-10-22T06:04:11;19.13;;;10.13;;
62401;SDS011;48440;51.224;22.506;2022-10-22T06:09:12;25.55;;;10.52;;
62401;SDS011;48440;51.224;22.506;2022-10-22T06:11:48;22.33;;;10.07;;
62401;SDS011;48440;51.224;22.506;2022-10-22T06:14:14;17.48;;;10.02;;
62401;SDS011;48440;51.224;22.506;2022-10-22T06:16:40;21.65;;;10.70;;
62401;SDS011;48440;51.224;22.506;2022-10-22T06:19:06;26.98;;;11.75;;
62401;SDS011;48440;51.224;22.506;2022-10-22T06:21:32;26.77;;;10.70;;
62401;SDS011;48440;51.224;22.506;2022-10-22T06:23:58;18.05;;;9.88;;
62401;SDS011;48440;51.224;22.506;2022-10-22T06:26:26;24.15;;;11.05;;
62401;SDS011;48440;51.224;22.506;2022-10-22T06:28:52;23.70;;;10.82;;
62401;SDS011;48440;51.224;22.506;2022-10-22T06:31:19;24.23;;;10.57;;
62401;SDS011;48440;51.224;22.506;2022-10-22T06:33:45;22.85;;;11.10;;
62401;SDS011;48440;51.224;22.506;2022-10-22T06:36:11;22.05;;;11.07;;
62401;SDS011;48440;51.224;22.506;2022-10-22T06:38:42;27.10;;;11.85;;
62401;SDS011;48440;51.224;22.506;2022-10-22T06:41:09;24.55;;;11.18;;
62401;SDS011;48440;51.224;22.506;2022-10-22T06:43:36;26.65;;;12.32;;
62401;SDS011;48440;51.224;22.506;2022-10-22T06:46:05;23.92;;;11.32;;
62401;SDS011;48440;51.224;22.506;2022-10-22T06:48:36;34.95;;;14.30;;
62401;SDS011;48440;51.224;22.506;2022-10-22T06:51:04;28.35;;;12.48;;
62401;SDS011;48440;51.224;22.506;2022-10-22T06:53:35;29.90;;;12.02;;
62401;SDS011;48440;51.224;22.506;2022-10-22T06:56:11;31.17;;;12.25;;
62401;SDS011;48440;51.224;22.506;2022-10-22T06:58:39;26.25;;;12.52;;
62401;SDS011;48440;51.224;22.506;2022-10-22T07:01:06;28.95;;;12.52;;
62401;SDS011;48440;51.224;22.506;2022-10-22T07:03:33;27.30;;;12.32;;
62401;SDS011;48440;51.224;22.506;2022-10-22T07:06:00;27.92;;;12.95;;
62401;SDS011;48440;51.224;22.506;2022-10-22T07:08:26;29.00;;;14.13;;
62401;SDS011;48440;51.224;22.506;2022-10-22T07:10:53;25.10;;;13.45;;
62401;SDS011;48440;51.224;22.506;2022-10-22T07:13:19;28.48;;;14.07;;
62401;SDS011;48440;51.224;22.506;2022-10-22T07:15:53;30.27;;;14.32;;
62401;SDS011;48440;51.224;22.506;2022-10-22T07:18:19;29.67;;;14.17;;
62401;SDS011;48440;51.224;22.506;2022-10-22T07:20:46;33.47;;;15.52;;
62401;SDS011;48440;51.224;22.506;2022-10-22T07:23:12;27.27;;;14.35;;
62401;SDS011;48440;51.224;22.506;2022-10-22T07:25:39;31.52;;;14.73;;
62401;SDS011;48440;51.224;22.506;2022-10-22T07:28:05;31.67;;;14.82;;
62401;SDS011;48440;51.224;22.506;2022-10-22T07:30:30;29.90;;;14.63;;
62401;SDS011;48440;51.224;22.506;2022-10-22T07:32:56;32.80;;;15.00;;
62401;SDS011;48440;51.224;22.506;2022-10-22T07:35:21;36.33;;;14.48;;
62401;SDS011;48440;51.224;22.506;2022-10-22T07:37:47;30.17;;;14.73;;
62401;SDS011;48440;51.224;22.506;2022-10-22T07:40:13;31.58;;;14.43;;
62401;SDS011;48440;51.224;22.506;2022-10-22T07:42:39;33.15;;;15.93;;
62401;SDS011;48440;51.224;22.506;2022-10-22T07:45:05;37.30;;;16.50;;
62401;SDS011;48440;51.224;22.506;2022-10-22T07:47:31;36.78;;;16.65;;
62401;SDS011;48440;51.224;22.506;2022-10-22T07:49:57;39.25;;;17.95;;
62401;SDS011;48440;51.224;22.506;2022-10-22T07:52:22;44.17;;;17.17;;
62401;SDS011;48440;51.224;22.506;2022-10-22T07:54:48;41.10;;;18.33;;
62401;SDS011;48440;51.224;22.506;2022-10-22T07:57:14;41.60;;;19.05;;
62401;SDS011;48440;51.224;22.506;2022-10-22T07:59:39;35.60;;;17.98;;
62401;SDS011;48440;51.224;22.506;2022-10-22T08:02:05;42.22;;;18.70;;
62401;SDS011;48440;51.224;22.506;2022-10-22T08:04:31;52.65;;;21.38;;
62401;SDS011;48440;51.224;22.506;2022-10-22T08:06:56;41.33;;;18.42;;
62401;SDS011;48440;51.224;22.506;2022-10-22T08:09:22;39.38;;;18.73;;
62401;SDS011;48440;51.224;22.506;2022-10-22T08:11:47;39.92;;;19.55;;
62401;SDS011;48440;51.224;22.506;2022-10-22T08:14:14;38.63;;;17.08;;
62401;SDS011;48440;51.224;22.506;2022-10-22T08:16:40;41.67;;;19.33;;
62401;SDS011;48440;51.224;22.506;2022-10-22T08:19:05;45.90;;;19.08;;
62401;SDS011;48440;51.224;22.506;2022-10-22T08:21:31;41.05;;;20.17;;
62401;SDS011;48440;51.224;22.506;2022-10-22T08:24:00;50.22;;;19.35;;
62401;SDS011;48440;51.224;22.506;2022-10-22T08:26:28;43.40;;;17.63;;
62401;SDS011;48440;51.224;22.506;2022-10-22T08:28:54;42.85;;;19.35;;
62401;SDS011;48440;51.224;22.506;2022-10-22T08:31:19;49.45;;;20.20;;
62401;SDS011;48440;51.224;22.506;2022-10-22T08:33:45;44.28;;;19.48;;
62401;SDS011;48440;51.224;22.506;2022-10-22T08:36:11;38.95;;;18.17;;
62401;SDS011;48440;51.224;22.506;2022-10-22T08:38:42;43.15;;;19.67;;
62401;SDS011;48440;51.224;22.506;2022-10-22T08:49:24;43.03;;;19.25;;
62401;SDS011;48440;51.224;22.506;2022-10-22T08:51:53;50.30;;;20.35;;
62401;SDS011;48440;51.224;22.506;2022-10-22T09:02:51;50.60;;;22.65;;
62401;SDS011;48440;51.224;22.506;2022-10-22T09:07:49;50.55;;;21.90;;
62401;SDS011;48440;51.224;22.506;2022-10-22T09:10:17;52.83;;;22.58;;
62401;SDS011;48440;51.224;22.506;2022-10-22T09:12:46;50.75;;;20.63;;
62401;SDS011;48440;51.224;22.506;2022-10-22T09:15:15;54.38;;;21.42;;
62401;SDS011;48440;51.224;22.506;2022-10-22T09:20:49;49.78;;;22.42;;
62401;SDS011;48440;51.224;22.506;2022-10-22T09:26:12;55.13;;;24.10;;
62401;SDS011;48440;51.224;22.506;2022-10-22T09:28:43;52.50;;;22.80;;
62401;SDS011;48440;51.224;22.506;2022-10-22T09:31:15;52.58;;;22.63;;
62401;SDS011;48440;51.224;22.506;2022-10-22T09:33:41;54.53;;;22.35;;
62401;SDS011;48440;51.224;22.506;2022-10-22T09:36:12;58.20;;;24.17;;
62401;SDS011;48440;51.224;22.506;2022-10-22T09:38:46;69.43;;;28.38;;
62401;SDS011;48440;51.224;22.506;2022-10-22T09:41:14;89.70;;;32.45;;
62401;SDS011;48440;51.224;22.506;2022-10-22T09:43:40;91.95;;;35.13;;
62401;SDS011;48440;51.224;22.506;2022-10-22T09:46:07;100.05;;;37.05;;
62401;SDS011;48440;51.224;22.506;2022-10-22T09:48:40;96.53;;;37.38;;
62401;SDS011;48440;51.224;22.506;2022-10-22T09:51:22;86.25;;;33.38;;
62401;SDS011;48440;51.224;22.506;2022-10-22T09:54:01;76.43;;;31.00;;
62401;SDS011;48440;51.224;22.506;2022-10-22T09:56:40;79.38;;;29.85;;
62401;SDS011;48440;51.224;22.506;2022-10-22T09:59:16;63.33;;;26.02;;
62401;SDS011;48440;51.224;22.506;2022-10-22T10:01:42;68.47;;;25.90;;
62401;SDS011;48440;51.224;22.506;2022-10-22T10:04:10;58.03;;;25.73;;
62401;SDS011;48440;51.224;22.506;2022-10-22T10:06:38;58.42;;;24.33;;
62401;SDS011;48440;51.224;22.506;2022-10-22T10:09:19;59.53;;;25.08;;
62401;SDS011;48440;51.224;22.506;2022-10-22T10:12:03;52.35;;;22.02;;
62401;SDS011;48440;51.224;22.506;2022-10-22T10:20:40;53.65;;;23.02;;
62401;SDS011;48440;51.224;22.506;2022-10-22T10:33:39;72.80;;;26.88;;
62401;SDS011;48440;51.224;22.506;2022-10-22T10:50:33;69.13;;;26.83;;
62401;SDS011;48440;51.224;22.506;2022-10-22T10:59:10;61.97;;;26.30;;
62401;SDS011;48440;51.224;22.506;2022-10-22T11:06:49;72.57;;;27.92;;
62401;SDS011;48440;51.224;22.506;2022-10-22T11:09:35;76.63;;;27.60;;
62401;SDS011;48440;51.224;22.506;2022-10-22T11:12:14;78.20;;;29.40;;
62401;SDS011;48440;51.224;22.506;2022-10-22T11:17:43;82.45;;;29.83;;
62401;SDS011;48440;51.224;22.506;2022-10-22T11:20:17;70.53;;;26.63;;
62401;SDS011;48440;51.224;22.506;2022-10-22T11:22:56;73.13;;;26.38;;
62401;SDS011;48440;51.224;22.506;2022-10-22T11:25:28;72.70;;;27.70;;
62401;SDS011;48440;51.224;22.506;2022-10-22T11:30:25;65.55;;;24.98;;
62401;SDS011;48440;51.224;22.506;2022-10-22T11:32:59;56.53;;;22.92;;
62401;SDS011;48440;51.224;22.506;2022-10-22T11:35:35;51.85;;;22.65;;
62401;SDS011;48440;51.224;22.506;2022-10-22T11:38:09;52.75;;;23.02;;
62401;SDS011;48440;51.224;22.506;2022-10-22T11:43:47;60.38;;;24.35;;
62401;SDS011;48440;51.224;22.506;2022-10-22T11:48:44;66.72;;;24.80;;
62401;SDS011;48440;51.224;22.506;2022-10-22T11:51:31;68.72;;;25.58;;
62401;SDS011;48440;51.224;22.506;2022-10-22T11:53:57;62.90;;;25.08;;
62401;SDS011;48440;51.224;22.506;2022-10-22T11:56:35;72.20;;;25.70;;
62401;SDS011;48440;51.224;22.506;2022-10-22T11:59:02;74.30;;;25.90;;
62401;SDS011;48440;51.224;22.506;2022-10-22T12:01:39;64.22;;;24.23;;
62401;SDS011;48440;51.224;22.506;2022-10-22T12:11:54;63.42;;;25.13;;
62401;SDS011;48440;51.224;22.506;2022-10-22T12:17:11;60.20;;;26.15;;
62401;SDS011;48440;51.224;22.506;2022-10-22T12:19:43;55.70;;;25.65;;
62401;SDS011;48440;51.224;22.506;2022-10-22T12:24:37;65.90;;;27.90;;
62401;SDS011;48440;51.224;22.506;2022-10-22T12:27:18;57.35;;;26.08;;
62401;SDS011;48440;51.224;22.506;2022-10-22T12:29:55;50.42;;;24.23;;
62401;SDS011;48440;51.224;22.506;2022-10-22T12:32:25;50.95;;;24.45;;
62401;SDS011;48440;51.224;22.506;2022-10-22T12:35:10;56.13;;;24.25;;
62401;SDS011;48440;51.224;22.506;2022-10-22T12:37:41;50.80;;;23.17;;
62401;SDS011;48440;51.224;22.506;2022-10-22T12:40:39;57.40;;;24.15;;
62401;SDS011;48440;51.224;22.506;2022-10-22T12:42:59;62.00;;;25.83;;
62401;SDS011;48440;51.224;22.506;2022-10-22T12:45:30;57.35;;;26.33;;
62401;SDS011;48440;51.224;22.506;2022-10-22T12:47:59;56.03;;;26.33;;
62401;SDS011;48440;51.224;22.506;2022-10-22T12:50:34;55.63;;;26.15;;
62401;SDS011;48440;51.224;22.506;2022-10-22T12:53:05;60.08;;;24.75;;
62401;SDS011;48440;51.224;22.506;2022-10-22T12:55:44;58.83;;;26.80;;
62401;SDS011;48440;51.224;22.506;2022-10-22T12:58:15;56.33;;;25.48;;
62401;SDS011;48440;51.224;22.506;2022-10-22T13:00:43;57.83;;;25.67;;
62401;SDS011;48440;51.224;22.506;2022-10-22T13:05:53;47.70;;;21.73;;
62401;SDS011;48440;51.224;22.506;2022-10-22T13:08:22;41.85;;;21.58;;
62401;SDS011;48440;51.224;22.506;2022-10-22T13:13:33;30.42;;;17.90;;
62401;SDS011;48440;51.224;22.506;2022-10-22T13:16:17;33.15;;;18.55;;
62401;SDS011;48440;51.224;22.506;2022-10-22T13:18:48;44.38;;;21.88;;
62401;SDS011;48440;51.224;22.506;2022-10-22T13:21:36;49.08;;;24.40;;
62401;SDS011;48440;51.224;22.506;2022-10-22T13:24:18;52.28;;;25.25;;
62401;SDS011;48440;51.224;22.506;2022-10-22T13:26:49;49.88;;;26.23;;
62401;SDS011;48440;51.224;22.506;2022-10-22T13:29:17;59.35;;;28.48;;
62401;SDS011;48440;51.224;22.506;2022-10-22T13:31:54;53.13;;;28.83;;
62401;SDS011;48440;51.224;22.506;2022-10-22T13:34:20;59.22;;;30.17;;
62401;SDS011;48440;51.224;22.506;2022-10-22T13:36:48;53.50;;;28.27;;
62401;SDS011;48440;51.224;22.506;2022-10-22T13:39:16;48.60;;;26.98;;
62401;SDS011;48440;51.224;22.506;2022-10-22T13:41:42;52.40;;;26.48;;
62401;SDS011;48440;51.224;22.506;2022-10-22T13:44:08;50.97;;;27.50;;
62401;SDS011;48440;51.224;22.506;2022-10-22T13:46:34;51.15;;;29.38;;
62401;SDS011;48440;51.224;22.506;2022-10-22T13:49:06;43.53;;;23.83;;
62401;SDS011;48440;51.224;22.506;2022-10-22T13:51:38;36.63;;;21.80;;
62401;SDS011;48440;51.224;22.506;2022-10-22T13:54:05;43.88;;;25.17;;
62401;SDS011;48440;51.224;22.506;2022-10-22T13:56:39;51.30;;;29.67;;
62401;SDS011;48440;51.224;22.506;2022-10-22T13:59:08;47.30;;;29.33;;
62401;SDS011;48440;51.224;22.506;2022-10-22T14:01:35;47.30;;;26.45;;
62401;SDS011;48440;51.224;22.506;2022-10-22T14:04:03;41.63;;;22.60;;
62401;SDS011;48440;51.224;22.506;2022-10-22T14:06:31;36.42;;;19.23;;
62401;SDS011;48440;51.224;22.506;2022-10-22T14:08:59;39.50;;;19.55;;
62401;SDS011;48440;51.224;22.506;2022-10-22T14:11:35;29.98;;;17.83;;
62401;SDS011;48440;51.224;22.506;2022-10-22T14:14:05;32.50;;;18.92;;
62401;SDS011;48440;51.224;22.506;2022-10-22T14:16:33;39.42;;;21.27;;
62401;SDS011;48440;51.224;22.506;2022-10-22T14:19:03;38.08;;;22.27;;
62401;SDS011;48440;51.224;22.506;2022-10-22T14:21:38;37.92;;;22.35;;
62401;SDS011;48440;51.224;22.506;2022-10-22T14:24:13;44.40;;;24.23;;
62401;SDS011;48440;51.224;22.506;2022-10-22T14:26:48;41.38;;;23.42;;
62401;SDS011;48440;51.224;22.506;2022-10-22T14:29:14;35.08;;;20.67;;
62401;SDS011;48440;51.224;22.506;2022-10-22T14:31:45;36.72;;;22.10;;
62401;SDS011;48440;51.224;22.506;2022-10-22T14:34:14;35.15;;;20.35;;
62401;SDS011;48440;51.224;22.506;2022-10-22T14:36:42;36.65;;;21.85;;
62401;SDS011;48440;51.224;22.506;2022-10-22T14:39:08;44.20;;;22.35;;
62401;SDS011;48440;51.224;22.506;2022-10-22T14:41:37;40.83;;;23.65;;
62401;SDS011;48440;51.224;22.506;2022-10-22T14:44:07;44.30;;;24.55;;
62401;SDS011;48440;51.224;22.506;2022-10-22T14:46:38;43.22;;;24.25;;
62401;SDS011;48440;51.224;22.506;2022-10-22T14:49:09;46.30;;;25.90;;
62401;SDS011;48440;51.224;22.506;2022-10-22T14:51:38;54.22;;;26.40;;
62401;SDS011;48440;51.224;22.506;2022-10-22T14:54:09;52.85;;;25.98;;
62401;SDS011;48440;51.224;22.506;2022-10-22T14:56:38;48.78;;;25.52;;
62401;SDS011;48440;51.224;22.506;2022-10-22T14:59:04;52.13;;;25.83;;
62401;SDS011;48440;51.224;22.506;2022-10-22T15:01:30;50.05;;;25.77;;
62401;SDS011;48440;51.224;22.506;2022-10-22T15:03:56;48.88;;;24.90;;
62401;SDS011;48440;51.224;22.506;2022-10-22T15:06:26;51.97;;;27.52;;
62401;SDS011;48440;51.224;22.506;2022-10-22T15:08:54;51.70;;;25.88;;
62401;SDS011;48440;51.224;22.506;2022-10-22T15:11:20;52.55;;;26.50;;
62401;SDS011;48440;51.224;22.506;2022-10-22T15:13:49;52.63;;;26.45;;
62401;SDS011;48440;51.224;22.506;2022-10-22T15:16:15;49.85;;;26.95;;
62401;SDS011;48440;51.224;22.506;2022-10-22T15:18:42;52.80;;;26.83;;
62401;SDS011;48440;51.224;22.506;2022-10-22T15:21:13;59.30;;;29.40;;
62401;SDS011;48440;51.224;22.506;2022-10-22T15:23:40;56.60;;;29.27;;
62401;SDS011;48440;51.224;22.506;2022-10-22T15:26:14;61.38;;;30.00;;
62401;SDS011;48440;51.224;22.506;2022-10-22T15:28:45;61.70;;;32.67;;
62401;SDS011;48440;51.224;22.506;2022-10-22T15:31:11;64.00;;;32.97;;
62401;SDS011;48440;51.224;22.506;2022-10-22T15:33:39;70.38;;;35.13;;
62401;SDS011;48440;51.224;22.506;2022-10-22T15:36:15;78.55;;;35.88;;
62401;SDS011;48440;51.224;22.506;2022-10-22T15:38:41;84.05;;;37.35;;
62401;SDS011;48440;51.224;22.506;2022-10-22T15:41:10;84.00;;;37.20;;
62401;SDS011;48440;51.224;22.506;2022-10-22T15:43:37;87.72;;;39.50;;
62401;SDS011;48440;51.224;22.506;2022-10-22T15:48:37;88.63;;;39.58;;
62401;SDS011;48440;51.224;22.506;2022-10-22T15:51:11;90.45;;;40.63;;
62401;SDS011;48440;51.224;22.506;2022-10-22T15:53:38;86.07;;;38.75;;
62401;SDS011;48440;51.224;22.506;2022-10-22T15:56:04;91.13;;;39.90;;
62401;SDS011;48440;51.224;22.506;2022-10-22T15:58:30;92.35;;;39.30;;
62401;SDS011;48440;51.224;22.506;2022-10-22T16:01:07;98.00;;;42.17;;
62401;SDS011;48440;51.224;22.506;2022-10-22T16:03:35;94.50;;;44.10;;
62401;SDS011;48440;51.224;22.506;2022-10-22T16:06:04;91.38;;;41.20;;
62401;SDS011;48440;51.224;22.506;2022-10-22T16:08:33;101.55;;;43.25;;
62401;SDS011;48440;51.224;22.506;2022-10-22T16:11:03;106.45;;;43.72;;
62401;SDS011;48440;51.224;22.506;2022-10-22T16:13:35;100.93;;;44.20;;
62401;SDS011;48440;51.224;22.506;2022-10-22T16:16:05;98.35;;;42.28;;
62401;SDS011;48440;51.224;22.506;2022-10-22T16:18:32;113.05;;;45.28;;
62401;SDS011;48440;51.224;22.506;2022-10-22T16:20:58;114.30;;;44.63;;
62401;SDS011;48440;51.224;22.506;2022-10-22T16:23:24;103.60;;;43.45;;
62401;SDS011;48440;51.224;22.506;2022-10-22T16:25:49;106.65;;;43.65;;
62401;SDS011;48440;51.224;22.506;2022-10-22T16:28:15;104.20;;;45.78;;
62401;SDS011;48440;51.224;22.506;2022-10-22T16:30:41;115.18;;;45.83;;
62401;SDS011;48440;51.224;22.506;2022-10-22T16:33:07;121.55;;;48.70;;
62401;SDS011;48440;51.224;22.506;2022-10-22T16:35:37;119.03;;;48.80;;
62401;SDS011;48440;51.224;22.506;2022-10-22T16:38:04;119.35;;;47.60;;
62401;SDS011;48440;51.224;22.506;2022-10-22T16:40:30;128.93;;;48.95;;
62401;SDS011;48440;51.224;22.506;2022-10-22T16:42:58;119.22;;;48.83;;
62401;SDS011;48440;51.224;22.506;2022-10-22T16:45:24;123.20;;;48.20;;
62401;SDS011;48440;51.224;22.506;2022-10-22T16:47:54;132.07;;;49.78;;
62401;SDS011;48440;51.224;22.506;2022-10-22T16:50:19;130.25;;;49.35;;
62401;SDS011;48440;51.224;22.506;2022-10-22T16:52:45;131.05;;;51.35;;